^^
Station Historical Data
Daily Summary for May 4, 2017 Units:  Both    English   Metric
« Previous Day
Next Day »
Daily Weekly Monthly Yearly Custom
  High: Low: Average:
Temperature: 75.0 °F /  23.9 °C 49.6 °F /  9.8 °C 61.4 °F /  16.3 °C
Dew Point: 50.7 °F /  10.4 °C 44.4 °F /  6.9 °C 46.9 °F /  8.3 °C
Humidity: 88% 35% 62%
Wind Speed: 10.1mph /  16.3km/h - 0.9mph /  1.4km/h
Wind Gust: 11.0mph /  17.7km/h - -
Wind- - SSE
Pressure: 30.04 in /  1017.2 hPa 29.93 in /  1013.4 hPa -
Precipitation: 0.00 in /  0 mm    
Historical Graphs
 
 
Tabular Data for May 4, 2017
Time Temperature Dew Point Pressure Wind Wind Speed Wind Gust Humidity Rainfall Rate (Hourly) solar Conditions
00:01 56.3 °F /  13.5 °C 47.5 °F /  8.6 °C 30.01in /  1016.1hPa Calm     72% 0.00in /  0mm 0.0 W/m2
00:07 56.1 °F /  13.4 °C 47.3 °F /  8.5 °C 30.01in /  1016.1hPa Calm   2.0mph /  3.2km/h 72% 0.00in /  0mm 0.0 W/m2
00:14 55.9 °F /  13.3 °C 47.5 °F /  8.6 °C 30.01in /  1016.1hPa Calm   1.0mph /  1.6km/h 73% 0.00in /  0mm 0.0 W/m2
00:20 55.8 °F /  13.2 °C 47.3 °F /  8.5 °C 30.01in /  1016.1hPa Calm   1.0mph /  1.6km/h 73% 0.00in /  0mm 0.0 W/m2
00:26 55.6 °F /  13.1 °C 47.1 °F /  8.4 °C 30.02in /  1016.5hPa Calm     73% 0.00in /  0mm 0.0 W/m2
00:32 55.4 °F /  13 °C 47.3 °F /  8.5 °C 30.02in /  1016.5hPa Calm   1.0mph /  1.6km/h 74% 0.00in /  0mm 0.0 W/m2
00:38 55.2 °F /  12.9 °C 47.1 °F /  8.4 °C 30.02in /  1016.5hPa Calm     74% 0.00in /  0mm 0.0 W/m2
00:44 55.0 °F /  12.8 °C 46.9 °F /  8.3 °C 30.02in /  1016.5hPa Calm     74% 0.00in /  0mm 0.0 W/m2
00:50 54.9 °F /  12.7 °C 47.1 °F /  8.4 °C 30.02in /  1016.5hPa Calm     75% 0.00in /  0mm 0.0 W/m2
00:56 54.7 °F /  12.6 °C 46.9 °F /  8.3 °C 30.02in /  1016.5hPa Calm     75% 0.00in /  0mm 0.0 W/m2
01:02 54.5 °F /  12.5 °C 46.8 °F /  8.2 °C 30.02in /  1016.5hPa Calm     75% 0.00in /  0mm 0.0 W/m2
01:08 54.3 °F /  12.4 °C 46.9 °F /  8.3 °C 30.02in /  1016.5hPa Calm     76% 0.00in /  0mm 0.0 W/m2
01:14 54.1 °F /  12.3 °C 46.8 °F /  8.2 °C 30.02in /  1016.5hPa Calm     76% 0.00in /  0mm 0.0 W/m2
01:20 54.0 °F /  12.2 °C 46.9 °F /  8.3 °C 30.02in /  1016.5hPa Calm     77% 0.00in /  0mm 0.0 W/m2
01:26 54.0 °F /  12.2 °C 46.9 °F /  8.3 °C 30.02in /  1016.5hPa Calm     77% 0.00in /  0mm 0.0 W/m2
01:32 53.8 °F /  12.1 °C 46.8 °F /  8.2 °C 30.02in /  1016.5hPa Calm   2.0mph /  3.2km/h 77% 0.00in /  0mm 0.0 W/m2
01:38 53.4 °F /  11.9 °C 46.8 °F /  8.2 °C 30.01in /  1016.1hPa Calm   1.0mph /  1.6km/h 78% 0.00in /  0mm 0.0 W/m2
01:44 53.4 °F /  11.9 °C 47.1 °F /  8.4 °C 30.01in /  1016.1hPa Calm   2.0mph /  3.2km/h 79% 0.00in /  0mm 0.0 W/m2
01:50 53.2 °F /  11.8 °C 46.9 °F /  8.3 °C 30.01in /  1016.1hPa Calm     79% 0.00in /  0mm 0.0 W/m2
01:57 53.2 °F /  11.8 °C 46.9 °F /  8.3 °C 30.01in /  1016.1hPa Calm     79% 0.00in /  0mm 0.0 W/m2
02:03 53.2 °F /  11.8 °C 46.9 °F /  8.3 °C 30.01in /  1016.1hPa Calm     79% 0.00in /  0mm 0.0 W/m2
02:09 53.2 °F /  11.8 °C 47.3 °F /  8.5 °C 30.01in /  1016.1hPa Calm   1.0mph /  1.6km/h 80% 0.00in /  0mm 0.0 W/m2
02:15 53.2 °F /  11.8 °C 47.3 °F /  8.5 °C 30.01in /  1016.1hPa Calm     80% 0.00in /  0mm 0.0 W/m2
02:21 53.2 °F /  11.8 °C 47.3 °F /  8.5 °C 30.01in /  1016.1hPa Calm     80% 0.00in /  0mm 0.0 W/m2
02:27 53.2 °F /  11.8 °C 47.3 °F /  8.5 °C 30.01in /  1016.1hPa Calm     80% 0.00in /  0mm 0.0 W/m2
02:33 53.2 °F /  11.8 °C 47.3 °F /  8.5 °C 30.01in /  1016.1hPa Calm     80% 0.00in /  0mm 0.0 W/m2
02:39 53.1 °F /  11.7 °C 47.1 °F /  8.4 °C 30.01in /  1016.1hPa Calm     80% 0.00in /  0mm 0.0 W/m2
02:46 53.1 °F /  11.7 °C 47.1 °F /  8.4 °C 30.00in /  1015.8hPa Calm     80% 0.00in /  0mm 0.0 W/m2
02:52 52.9 °F /  11.6 °C 47.3 °F /  8.5 °C 30.00in /  1015.8hPa Calm     81% 0.00in /  0mm 0.0 W/m2
02:58 52.7 °F /  11.5 °C 47.1 °F /  8.4 °C 30.00in /  1015.8hPa Calm     81% 0.00in /  0mm 0.0 W/m2
03:04 52.5 °F /  11.4 °C 46.9 °F /  8.3 °C 30.00in /  1015.8hPa Calm     81% 0.00in /  0mm 0.0 W/m2
03:10 52.3 °F /  11.3 °C 46.8 °F /  8.2 °C 30.00in /  1015.8hPa Calm     81% 0.00in /  0mm 0.0 W/m2
03:16 52.2 °F /  11.2 °C 46.8 °F /  8.2 °C 30.00in /  1015.8hPa Calm     82% 0.00in /  0mm 0.0 W/m2
03:22 52.2 °F /  11.2 °C 46.8 °F /  8.2 °C 30.00in /  1015.8hPa Calm     82% 0.00in /  0mm 0.0 W/m2
03:29 52.0 °F /  11.1 °C 46.6 °F /  8.1 °C 30.00in /  1015.8hPa Calm   1.0mph /  1.6km/h 82% 0.00in /  0mm 0.0 W/m2
03:35 52.0 °F /  11.1 °C 46.9 °F /  8.3 °C 29.99in /  1015.5hPa Calm   1.0mph /  1.6km/h 83% 0.00in /  0mm 0.0 W/m2
03:41 52.0 °F /  11.1 °C 46.9 °F /  8.3 °C 29.99in /  1015.5hPa Calm     83% 0.00in /  0mm 0.0 W/m2
03:47 51.8 °F /  11 °C 46.8 °F /  8.2 °C 29.99in /  1015.5hPa Calm     83% 0.00in /  0mm 0.0 W/m2
03:53 51.8 °F /  11 °C 46.8 °F /  8.2 °C 29.99in /  1015.5hPa Calm     83% 0.00in /  0mm 0.0 W/m2
03:59 51.6 °F /  10.9 °C 46.6 °F /  8.1 °C 29.99in /  1015.5hPa Calm     83% 0.00in /  0mm 0.0 W/m2
04:05 51.6 °F /  10.9 °C 46.6 °F /  8.1 °C 29.99in /  1015.5hPa Calm     83% 0.00in /  0mm 0.0 W/m2
04:11 51.6 °F /  10.9 °C 46.6 °F /  8.1 °C 29.99in /  1015.5hPa Calm     83% 0.00in /  0mm 0.0 W/m2
04:17 51.4 °F /  10.8 °C 46.8 °F /  8.2 °C 29.99in /  1015.5hPa Calm     84% 0.00in /  0mm 0.0 W/m2
04:23 51.4 °F /  10.8 °C 46.8 °F /  8.2 °C 29.99in /  1015.5hPa Calm     84% 0.00in /  0mm 0.0 W/m2
04:29 51.4 °F /  10.8 °C 46.8 °F /  8.2 °C 29.99in /  1015.5hPa Calm     84% 0.00in /  0mm 0.0 W/m2
04:36 51.3 °F /  10.7 °C 46.6 °F /  8.1 °C 29.99in /  1015.5hPa Calm     84% 0.00in /  0mm 0.0 W/m2
04:42 51.3 °F /  10.7 °C 46.6 °F /  8.1 °C 29.99in /  1015.5hPa Calm     84% 0.00in /  0mm 0.0 W/m2
04:48 51.1 °F /  10.6 °C 46.4 °F /  8 °C 29.99in /  1015.5hPa Calm     84% 0.00in /  0mm 0.0 W/m2
04:54 51.1 °F /  10.6 °C 46.8 °F /  8.2 °C 29.99in /  1015.5hPa Calm   1.0mph /  1.6km/h 85% 0.00in /  0mm 0.0 W/m2
05:00 51.1 °F /  10.6 °C 46.8 °F /  8.2 °C 30.00in /  1015.8hPa Calm     85% 0.00in /  0mm 0.0 W/m2
05:06 51.3 °F /  10.7 °C 46.9 °F /  8.3 °C 30.00in /  1015.8hPa Calm     85% 0.00in /  0mm 0.0 W/m2
05:12 51.3 °F /  10.7 °C 46.6 °F /  8.1 °C 30.00in /  1015.8hPa Calm     84% 0.00in /  0mm 0.0 W/m2
05:18 51.3 °F /  10.7 °C 46.6 °F /  8.1 °C 30.01in /  1016.1hPa Calm     84% 0.00in /  0mm 0.0 W/m2
05:24 51.1 °F /  10.6 °C 46.4 °F /  8 °C 30.01in /  1016.1hPa Calm     84% 0.00in /  0mm 0.0 W/m2
05:30 51.1 °F /  10.6 °C 46.4 °F /  8 °C 30.01in /  1016.1hPa Calm     84% 0.00in /  0mm 0.0 W/m2
05:36 50.9 °F /  10.5 °C 46.2 °F /  7.9 °C 30.01in /  1016.1hPa Calm     84% 0.00in /  0mm 0.0 W/m2
05:42 50.7 °F /  10.4 °C 46.0 °F /  7.8 °C 30.01in /  1016.1hPa Calm     84% 0.00in /  0mm 0.0 W/m2
05:49 50.4 °F /  10.2 °C 46.0 °F /  7.8 °C 30.01in /  1016.1hPa Calm     85% 0.00in /  0mm 0.0 W/m2
05:55 50.4 °F /  10.2 °C 46.0 °F /  7.8 °C 30.01in /  1016.1hPa Calm     85% 0.00in /  0mm 0.0 W/m2
06:00 50.2 °F /  10.1 °C 45.9 °F /  7.7 °C 30.01in /  1016.1hPa Calm     85% 0.00in /  0mm 0.0 W/m2
06:06 50.0 °F /  10 °C 46.0 °F /  7.8 °C 30.01in /  1016.1hPa Calm     86% 0.00in /  0mm 0.0 W/m2
06:12 49.8 °F /  9.9 °C 45.9 °F /  7.7 °C 30.02in /  1016.5hPa Calm     86% 0.00in /  0mm 0.0 W/m2
06:19 49.8 °F /  9.9 °C 45.9 °F /  7.7 °C 30.02in /  1016.5hPa Calm     86% 0.00in /  0mm 5.0 W/m2
06:26 49.6 °F /  9.8 °C 45.7 °F /  7.6 °C 30.02in /  1016.5hPa Calm     86% 0.00in /  0mm 7.0 W/m2
06:33 49.6 °F /  9.8 °C 45.9 °F /  7.7 °C 30.02in /  1016.5hPa Calm     87% 0.00in /  0mm 9.0 W/m2
06:39 49.6 °F /  9.8 °C 45.9 °F /  7.7 °C 30.02in /  1016.5hPa Calm     87% 0.00in /  0mm 11.0 W/m2
06:45 49.8 °F /  9.9 °C 46.4 °F /  8 °C 30.02in /  1016.5hPa Calm     88% 0.00in /  0mm 12.0 W/m2
06:51 50.2 °F /  10.1 °C 46.4 °F /  8 °C 30.02in /  1016.5hPa Calm   2.0mph /  3.2km/h 87% 0.00in /  0mm 12.0 W/m2
06:57 50.4 °F /  10.2 °C 46.6 °F /  8.1 °C 30.03in /  1016.8hPa Calm     87% 0.00in /  0mm 14.0 W/m2
07:03 50.5 °F /  10.3 °C 46.6 °F /  8.1 °C 30.03in /  1016.8hPa Calm     86% 0.00in /  0mm 14.0 W/m2
07:09 50.9 °F /  10.5 °C 46.9 °F /  8.3 °C 30.03in /  1016.8hPa Calm     86% 0.00in /  0mm 16.0 W/m2
07:15 51.3 °F /  10.7 °C 47.3 °F /  8.5 °C 30.03in /  1016.8hPa Calm     86% 0.00in /  0mm 18.0 W/m2
07:21 51.8 °F /  11 °C 47.5 °F /  8.6 °C 30.03in /  1016.8hPa Calm     85% 0.00in /  0mm 18.0 W/m2
07:27 52.2 °F /  11.2 °C 47.5 °F /  8.6 °C 30.03in /  1016.8hPa Calm     84% 0.00in /  0mm 19.0 W/m2
07:33 52.5 °F /  11.4 °C 47.8 °F /  8.8 °C 30.03in /  1016.8hPa Calm     84% 0.00in /  0mm 19.0 W/m2
07:40 53.1 °F /  11.7 °C 48.0 °F /  8.9 °C 30.03in /  1016.8hPa Calm     83% 0.00in /  0mm 21.0 W/m2
07:46 53.8 °F /  12.1 °C 48.4 °F /  9.1 °C 30.03in /  1016.8hPa Calm     82% 0.00in /  0mm 21.0 W/m2
07:52 54.7 °F /  12.6 °C 48.6 °F /  9.2 °C 30.03in /  1016.8hPa NNW 2.0mph /  3.2km/h 4.0mph /  6.4km/h 80% 0.00in /  0mm 21.0 W/m2
07:58 55.9 °F /  13.3 °C 48.9 °F /  9.4 °C 30.03in /  1016.8hPa Calm   4.0mph /  6.4km/h 77% 0.00in /  0mm 23.0 W/m2
08:04 57.4 °F /  14.1 °C 49.1 °F /  9.5 °C 30.03in /  1016.8hPa ENE 4.0mph /  6.4km/h 6.0mph /  9.7km/h 74% 0.00in /  0mm 25.0 W/m2
08:10 58.5 °F /  14.7 °C 49.5 °F /  9.7 °C 30.03in /  1016.8hPa Calm   5.0mph /  8km/h 72% 0.00in /  0mm 25.0 W/m2
08:16 59.4 °F /  15.2 °C 49.6 °F /  9.8 °C 30.03in /  1016.8hPa Calm   3.0mph /  4.8km/h 70% 0.00in /  0mm 33.0 W/m2
08:22 60.6 °F /  15.9 °C 50.0 °F /  10 °C 30.03in /  1016.8hPa Calm   3.0mph /  4.8km/h 68% 0.00in /  0mm 425.0 W/m2
08:28 61.9 °F /  16.6 °C 50.4 °F /  10.2 °C 30.03in /  1016.8hPa ESE 4.9mph /  7.9km/h 5.0mph /  8km/h 66% 0.00in /  0mm 454.0 W/m2
08:35 62.8 °F /  17.1 °C 50.4 °F /  10.2 °C 30.03in /  1016.8hPa Calm   4.0mph /  6.4km/h 64% 0.00in /  0mm 476.0 W/m2
08:41 63.9 °F /  17.7 °C 50.5 °F /  10.3 °C 30.03in /  1016.8hPa Calm   6.0mph /  9.7km/h 62% 0.00in /  0mm 497.0 W/m2
08:47 64.9 °F /  18.3 °C 50.7 °F /  10.4 °C 30.03in /  1016.8hPa NNW 4.0mph /  6.4km/h 5.0mph /  8km/h 60% 0.00in /  0mm 517.0 W/m2
08:55 65.8 °F /  18.8 °C 50.2 °F /  10.1 °C 30.03in /  1016.8hPa ESE 0.9mph /  1.4km/h 6.0mph /  9.7km/h 57% 0.00in /  0mm 538.0 W/m2
09:01 66.6 °F /  19.2 °C 49.8 °F /  9.9 °C 30.03in /  1016.8hPa North 4.0mph /  6.4km/h 6.0mph /  9.7km/h 55% 0.00in /  0mm 559.0 W/m2
09:07 67.3 °F /  19.6 °C 50.0 °F /  10 °C 30.03in /  1016.8hPa NNE 2.9mph /  4.7km/h 6.0mph /  9.7km/h 54% 0.00in /  0mm 575.0 W/m2
09:14 67.8 °F /  19.9 °C 50.5 °F /  10.3 °C 30.03in /  1016.8hPa NNW 4.0mph /  6.4km/h 7.0mph /  11.3km/h 54% 0.00in /  0mm 589.0 W/m2
09:21 68.2 °F /  20.1 °C 49.8 °F /  9.9 °C 30.03in /  1016.8hPa North 2.0mph /  3.2km/h 7.0mph /  11.3km/h 52% 0.00in /  0mm 605.0 W/m2
09:26 68.5 °F /  20.3 °C 50.2 °F /  10.1 °C 30.04in /  1017.2hPa NNE 6.9mph /  11.1km/h 8.0mph /  12.9km/h 52% 0.00in /  0mm 622.0 W/m2
09:32 68.7 °F /  20.4 °C 50.4 °F /  10.2 °C 30.03in /  1016.8hPa East 2.0mph /  3.2km/h 6.0mph /  9.7km/h 52% 0.00in /  0mm 638.0 W/m2
09:38 68.9 °F /  20.5 °C 50.5 °F /  10.3 °C 30.03in /  1016.8hPa NNE 4.0mph /  6.4km/h 7.0mph /  11.3km/h 52% 0.00in /  0mm 659.0 W/m2
09:45 69.3 °F /  20.7 °C 49.8 °F /  9.9 °C 30.03in /  1016.8hPa ENE 2.9mph /  4.7km/h 7.0mph /  11.3km/h 50% 0.00in /  0mm 689.0 W/m2
09:51 69.4 °F /  20.8 °C 49.5 °F /  9.7 °C 30.03in /  1016.8hPa NE 2.9mph /  4.7km/h 5.0mph /  8km/h 49% 0.00in /  0mm 689.0 W/m2
09:57 69.6 °F /  20.9 °C 50.7 °F /  10.4 °C 30.03in /  1016.8hPa Calm   4.0mph /  6.4km/h 51% 0.00in /  0mm 719.0 W/m2
10:03 70.2 °F /  21.2 °C 50.7 °F /  10.4 °C 30.02in /  1016.5hPa ESE 2.9mph /  4.7km/h 7.0mph /  11.3km/h 50% 0.00in /  0mm 782.0 W/m2
10:09 70.5 °F /  21.4 °C 49.8 °F /  9.9 °C 30.02in /  1016.5hPa NE 4.9mph /  7.9km/h 7.0mph /  11.3km/h 48% 0.00in /  0mm 812.0 W/m2
10:15 71.1 °F /  21.7 °C 50.4 °F /  10.2 °C 30.02in /  1016.5hPa East 0.9mph /  1.4km/h 8.0mph /  12.9km/h 48% 0.00in /  0mm 824.0 W/m2
10:21 71.4 °F /  21.9 °C 49.6 °F /  9.8 °C 30.02in /  1016.5hPa NNW 2.0mph /  3.2km/h 7.0mph /  11.3km/h 46% 0.00in /  0mm 821.0 W/m2
10:27 71.8 °F /  22.1 °C 49.8 °F /  9.9 °C 30.02in /  1016.5hPa NNW 2.0mph /  3.2km/h 6.0mph /  9.7km/h 46% 0.00in /  0mm 872.0 W/m2
10:33 72.1 °F /  22.3 °C 50.7 °F /  10.4 °C 30.01in /  1016.1hPa Calm   3.0mph /  4.8km/h 47% 0.00in /  0mm 970.0 W/m2
10:40 72.0 °F /  22.2 °C 49.5 °F /  9.7 °C 30.01in /  1016.1hPa NW 2.0mph /  3.2km/h 7.0mph /  11.3km/h 45% 0.00in /  0mm 977.0 W/m2
10:46 72.3 °F /  22.4 °C 49.8 °F /  9.9 °C 30.01in /  1016.1hPa North 4.0mph /  6.4km/h 5.0mph /  8km/h 45% 0.00in /  0mm 926.0 W/m2
10:52 72.1 °F /  22.3 °C 49.6 °F /  9.8 °C 30.01in /  1016.1hPa North 2.0mph /  3.2km/h 5.0mph /  8km/h 45% 0.00in /  0mm 933.0 W/m2
10:58 71.4 °F /  21.9 °C 49.6 °F /  9.8 °C 30.00in /  1015.8hPa Calm   2.0mph /  3.2km/h 46% 0.00in /  0mm 260.0 W/m2
11:04 71.1 °F /  21.7 °C 49.3 °F /  9.6 °C 30.00in /  1015.8hPa WSW 2.0mph /  3.2km/h 3.0mph /  4.8km/h 46% 0.00in /  0mm 522.0 W/m2
11:10 71.1 °F /  21.7 °C 49.3 °F /  9.6 °C 30.00in /  1015.8hPa North 4.0mph /  6.4km/h 6.0mph /  9.7km/h 46% 0.00in /  0mm 308.0 W/m2
11:16 70.5 °F /  21.4 °C 48.7 °F /  9.3 °C 30.00in /  1015.8hPa WNW 6.9mph /  11.1km/h 8.0mph /  12.9km/h 46% 0.00in /  0mm 253.0 W/m2
11:23 70.0 °F /  21.1 °C 49.5 °F /  9.7 °C 29.99in /  1015.5hPa NNW 2.9mph /  4.7km/h 5.0mph /  8km/h 48% 0.00in /  0mm 241.0 W/m2
11:29 70.0 °F /  21.1 °C 49.5 °F /  9.7 °C 29.99in /  1015.5hPa NNW 0.9mph /  1.4km/h 7.0mph /  11.3km/h 48% 0.00in /  0mm 309.0 W/m2
11:35 70.3 °F /  21.3 °C 49.1 °F /  9.5 °C 29.99in /  1015.5hPa Calm   3.0mph /  4.8km/h 47% 0.00in /  0mm 1018.0 W/m2
11:41 70.5 °F /  21.4 °C 48.7 °F /  9.3 °C 29.98in /  1015.1hPa Calm   1.0mph /  1.6km/h 46% 0.00in /  0mm 199.0 W/m2
11:47 70.3 °F /  21.3 °C 48.6 °F /  9.2 °C 29.98in /  1015.1hPa Calm     46% 0.00in /  0mm 213.0 W/m2
11:53 70.5 °F /  21.4 °C 48.7 °F /  9.3 °C 29.98in /  1015.1hPa NE 4.0mph /  6.4km/h 4.0mph /  6.4km/h 46% 0.00in /  0mm 364.0 W/m2
11:59 71.1 °F /  21.7 °C 48.6 °F /  9.2 °C 29.98in /  1015.1hPa NNW 0.9mph /  1.4km/h 5.0mph /  8km/h 45% 0.00in /  0mm 1137.0 W/m2
12:05 72.3 °F /  22.4 °C 49.1 °F /  9.5 °C 29.98in /  1015.1hPa NNW 10.1mph /  16.3km/h 10.1mph /  16.3km/h 44% 0.00in /  0mm 1063.0 W/m2
12:11 73.2 °F /  22.9 °C 48.7 °F /  9.3 °C 29.97in /  1014.8hPa NW 6.9mph /  11.1km/h 7.0mph /  11.3km/h 42% 0.00in /  0mm 394.0 W/m2
12:18 73.2 °F /  22.9 °C 48.7 °F /  9.3 °C 29.97in /  1014.8hPa Calm   5.0mph /  8km/h 42% 0.00in /  0mm 1095.0 W/m2
12:24 73.8 °F /  23.2 °C 48.0 °F /  8.9 °C 29.97in /  1014.8hPa NW 2.9mph /  4.7km/h 5.0mph /  8km/h 40% 0.00in /  0mm 1102.0 W/m2
12:30 74.5 °F /  23.6 °C 47.8 °F /  8.8 °C 29.96in /  1014.4hPa NNW 4.9mph /  7.9km/h 11.0mph /  17.7km/h 39% 0.00in /  0mm 715.0 W/m2
12:36 74.8 °F /  23.8 °C 48.2 °F /  9 °C 29.96in /  1014.4hPa Calm   5.0mph /  8km/h 39% 0.00in /  0mm 937.0 W/m2
12:42 74.8 °F /  23.8 °C 48.2 °F /  9 °C 29.96in /  1014.4hPa Calm   2.0mph /  3.2km/h 39% 0.00in /  0mm 234.0 W/m2
12:48 73.9 °F /  23.3 °C 48.0 °F /  8.9 °C 29.96in /  1014.4hPa Calm   3.0mph /  4.8km/h 40% 0.00in /  0mm 339.0 W/m2
12:54 73.6 °F /  23.1 °C 47.8 °F /  8.8 °C 29.96in /  1014.4hPa ENE 0.9mph /  1.4km/h 5.0mph /  8km/h 40% 0.00in /  0mm 264.0 W/m2
13:00 73.0 °F /  22.8 °C 47.3 °F /  8.5 °C 29.95in /  1014.1hPa SE 4.9mph /  7.9km/h 7.0mph /  11.3km/h 40% 0.00in /  0mm 230.0 W/m2
13:06 72.5 °F /  22.5 °C 46.8 °F /  8.2 °C 29.95in /  1014.1hPa SE 0.9mph /  1.4km/h 3.0mph /  4.8km/h 40% 0.00in /  0mm 223.0 W/m2
13:13 72.1 °F /  22.3 °C 45.9 °F /  7.7 °C 29.95in /  1014.1hPa NE 0.9mph /  1.4km/h 2.0mph /  3.2km/h 39% 0.00in /  0mm 292.0 W/m2
13:19 72.1 °F /  22.3 °C 45.9 °F /  7.7 °C 29.95in /  1014.1hPa SE 0.9mph /  1.4km/h 4.0mph /  6.4km/h 39% 0.00in /  0mm 376.0 W/m2
13:25 72.7 °F /  22.6 °C 45.0 °F /  7.2 °C 29.94in /  1013.8hPa ENE 4.0mph /  6.4km/h 10.0mph /  16.1km/h 37% 0.00in /  0mm 923.0 W/m2
13:31 73.2 °F /  22.9 °C 45.3 °F /  7.4 °C 29.94in /  1013.8hPa NE 2.9mph /  4.7km/h 9.0mph /  14.5km/h 37% 0.00in /  0mm 886.0 W/m2
13:37 73.9 °F /  23.3 °C 45.3 °F /  7.4 °C 29.94in /  1013.8hPa NE 4.9mph /  7.9km/h 9.0mph /  14.5km/h 36% 0.00in /  0mm 831.0 W/m2
13:43 73.9 °F /  23.3 °C 46.0 °F /  7.8 °C 29.94in /  1013.8hPa Calm   7.0mph /  11.3km/h 37% 0.00in /  0mm 281.0 W/m2
13:49 73.9 °F /  23.3 °C 46.0 °F /  7.8 °C 29.93in /  1013.4hPa NNE 2.9mph /  4.7km/h 6.0mph /  9.7km/h 37% 0.00in /  0mm 724.0 W/m2
13:56 74.5 °F /  23.6 °C 46.6 °F /  8.1 °C 29.93in /  1013.4hPa Calm   4.0mph /  6.4km/h 37% 0.00in /  0mm 726.0 W/m2
14:02 74.8 °F /  23.8 °C 46.0 °F /  7.8 °C 29.93in /  1013.4hPa Calm   4.0mph /  6.4km/h 36% 0.00in /  0mm 729.0 W/m2
14:08 75.0 °F /  23.9 °C 46.9 °F /  8.3 °C 29.93in /  1013.4hPa NNE 0.9mph /  1.4km/h 5.0mph /  8km/h 37% 0.00in /  0mm 118.0 W/m2
14:14 74.3 °F /  23.5 °C 46.4 °F /  8 °C 29.93in /  1013.4hPa Calm   3.0mph /  4.8km/h 37% 0.00in /  0mm 691.0 W/m2
14:20 73.9 °F /  23.3 °C 46.8 °F /  8.2 °C 29.93in /  1013.4hPa NE 4.0mph /  6.4km/h 4.0mph /  6.4km/h 38% 0.00in /  0mm 176.0 W/m2
14:26 73.8 °F /  23.2 °C 46.6 °F /  8.1 °C 29.93in /  1013.4hPa North 2.9mph /  4.7km/h 7.0mph /  11.3km/h 38% 0.00in /  0mm 668.0 W/m2
14:32 73.8 °F /  23.2 °C 46.6 °F /  8.1 °C 29.93in /  1013.4hPa NNE 2.9mph /  4.7km/h 5.0mph /  8km/h 38% 0.00in /  0mm 213.0 W/m2
14:38 73.6 °F /  23.1 °C 47.1 °F /  8.4 °C 29.93in /  1013.4hPa ENE 2.0mph /  3.2km/h 4.0mph /  6.4km/h 39% 0.00in /  0mm 244.0 W/m2
14:45 73.0 °F /  22.8 °C 45.9 °F /  7.7 °C 29.93in /  1013.4hPa ESE 2.0mph /  3.2km/h 5.0mph /  8km/h 38% 0.00in /  0mm 151.0 W/m2
14:51 72.9 °F /  22.7 °C 46.4 °F /  8 °C 29.93in /  1013.4hPa ESE 2.0mph /  3.2km/h 2.0mph /  3.2km/h 39% 0.00in /  0mm 174.0 W/m2
14:57 72.7 °F /  22.6 °C 46.2 °F /  7.9 °C 29.93in /  1013.4hPa Calm   3.0mph /  4.8km/h 39% 0.00in /  0mm 181.0 W/m2
15:03 72.3 °F /  22.4 °C 46.0 °F /  7.8 °C 29.93in /  1013.4hPa Calm   2.0mph /  3.2km/h 39% 0.00in /  0mm 190.0 W/m2
15:09 72.3 °F /  22.4 °C 45.3 °F /  7.4 °C 29.93in /  1013.4hPa NNW 0.9mph /  1.4km/h 4.0mph /  6.4km/h 38% 0.00in /  0mm 287.0 W/m2
15:15 72.7 °F /  22.6 °C 46.2 °F /  7.9 °C 29.93in /  1013.4hPa NE 4.0mph /  6.4km/h 5.0mph /  8km/h 39% 0.00in /  0mm 555.0 W/m2
15:21 73.4 °F /  23 °C 46.9 °F /  8.3 °C 29.93in /  1013.4hPa ESE 4.9mph /  7.9km/h 7.0mph /  11.3km/h 39% 0.00in /  0mm 536.0 W/m2
15:27 73.8 °F /  23.2 °C 46.6 °F /  8.1 °C 29.93in /  1013.4hPa NNW 0.9mph /  1.4km/h 5.0mph /  8km/h 38% 0.00in /  0mm 527.0 W/m2
15:34 73.9 °F /  23.3 °C 44.6 °F /  7 °C 29.93in /  1013.4hPa NNW 0.9mph /  1.4km/h 5.0mph /  8km/h 35% 0.00in /  0mm 185.0 W/m2
15:40 73.8 °F /  23.2 °C 45.1 °F /  7.3 °C 29.93in /  1013.4hPa NNW 2.0mph /  3.2km/h 7.0mph /  11.3km/h 36% 0.00in /  0mm 169.0 W/m2
15:46 73.6 °F /  23.1 °C 45.7 °F /  7.6 °C 29.93in /  1013.4hPa NNE 2.0mph /  3.2km/h 2.0mph /  3.2km/h 37% 0.00in /  0mm 146.0 W/m2
15:52 73.4 °F /  23 °C 45.5 °F /  7.5 °C 29.93in /  1013.4hPa NNE 0.9mph /  1.4km/h 6.0mph /  9.7km/h 37% 0.00in /  0mm 128.0 W/m2
15:58 73.2 °F /  22.9 °C 46.0 °F /  7.8 °C 29.93in /  1013.4hPa Calm   1.0mph /  1.6km/h 38% 0.00in /  0mm 130.0 W/m2
16:04 73.0 °F /  22.8 °C 45.9 °F /  7.7 °C 29.94in /  1013.8hPa NNW 2.9mph /  4.7km/h 6.0mph /  9.7km/h 38% 0.00in /  0mm 120.0 W/m2
16:10 72.7 °F /  22.6 °C 45.7 °F /  7.6 °C 29.94in /  1013.8hPa Calm   7.0mph /  11.3km/h 38% 0.00in /  0mm 105.0 W/m2
16:16 72.3 °F /  22.4 °C 46.6 °F /  8.1 °C 29.94in /  1013.8hPa NW 4.0mph /  6.4km/h 5.0mph /  8km/h 40% 0.00in /  0mm 93.0 W/m2
16:23 72.1 °F /  22.3 °C 46.4 °F /  8 °C 29.94in /  1013.8hPa North 2.9mph /  4.7km/h 6.0mph /  9.7km/h 40% 0.00in /  0mm 81.0 W/m2
16:29 71.8 °F /  22.1 °C 46.2 °F /  7.9 °C 29.94in /  1013.8hPa North 2.9mph /  4.7km/h 7.0mph /  11.3km/h 40% 0.00in /  0mm 67.0 W/m2
16:35 71.4 °F /  21.9 °C 46.6 °F /  8.1 °C 29.94in /  1013.8hPa Calm   4.0mph /  6.4km/h 41% 0.00in /  0mm 58.0 W/m2
16:41 71.4 °F /  21.9 °C 45.9 °F /  7.7 °C 29.95in /  1014.1hPa NW 4.9mph /  7.9km/h 6.0mph /  9.7km/h 40% 0.00in /  0mm 54.0 W/m2
16:47 71.1 °F /  21.7 °C 44.8 °F /  7.1 °C 29.95in /  1014.1hPa North 4.0mph /  6.4km/h 6.0mph /  9.7km/h 39% 0.00in /  0mm 39.0 W/m2
16:53 70.7 °F /  21.5 °C 45.1 °F /  7.3 °C 29.95in /  1014.1hPa NW 2.9mph /  4.7km/h 6.0mph /  9.7km/h 40% 0.00in /  0mm 32.0 W/m2
16:59 70.3 °F /  21.3 °C 45.5 °F /  7.5 °C 29.95in /  1014.1hPa NNW 2.0mph /  3.2km/h 6.0mph /  9.7km/h 41% 0.00in /  0mm 25.0 W/m2
17:05 70.2 °F /  21.2 °C 45.3 °F /  7.4 °C 29.96in /  1014.4hPa NNE 4.0mph /  6.4km/h 5.0mph /  8km/h 41% 0.00in /  0mm 16.0 W/m2
17:12 69.6 °F /  20.9 °C 45.5 °F /  7.5 °C 29.95in /  1014.1hPa North 0.9mph /  1.4km/h 4.0mph /  6.4km/h 42% 0.00in /  0mm 11.0 W/m2
17:18 69.4 °F /  20.8 °C 46.0 °F /  7.8 °C 29.96in /  1014.4hPa Calm   1.0mph /  1.6km/h 43% 0.00in /  0mm 7.0 W/m2
17:24 69.1 °F /  20.6 °C 45.7 °F /  7.6 °C 29.96in /  1014.4hPa Calm   3.0mph /  4.8km/h 43% 0.00in /  0mm 0.0 W/m2
17:30 68.5 °F /  20.3 °C 45.7 °F /  7.6 °C 29.96in /  1014.4hPa Calm     44% 0.00in /  0mm 0.0 W/m2
17:36 68.2 °F /  20.1 °C 46.0 °F /  7.8 °C 29.96in /  1014.4hPa Calm   1.0mph /  1.6km/h 45% 0.00in /  0mm 0.0 W/m2
17:43 67.6 °F /  19.8 °C 46.0 °F /  7.8 °C 29.96in /  1014.4hPa Calm   2.0mph /  3.2km/h 46% 0.00in /  0mm 0.0 W/m2
17:49 66.9 °F /  19.4 °C 46.0 °F /  7.8 °C 29.97in /  1014.8hPa Calm   2.0mph /  3.2km/h 47% 0.00in /  0mm 0.0 W/m2
17:55 66.6 °F /  19.2 °C 46.2 °F /  7.9 °C 29.97in /  1014.8hPa Calm   1.0mph /  1.6km/h 48% 0.00in /  0mm 0.0 W/m2
18:01 66.2 °F /  19 °C 46.4 °F /  8 °C 29.97in /  1014.8hPa Calm   1.0mph /  1.6km/h 49% 0.00in /  0mm 0.0 W/m2
18:07 65.7 °F /  18.7 °C 46.6 °F /  8.1 °C 29.97in /  1014.8hPa Calm   1.0mph /  1.6km/h 50% 0.00in /  0mm 0.0 W/m2
18:13 65.1 °F /  18.4 °C 47.1 °F /  8.4 °C 29.98in /  1015.1hPa Calm   1.0mph /  1.6km/h 52% 0.00in /  0mm 0.0 W/m2
18:19 64.6 °F /  18.1 °C 46.6 °F /  8.1 °C 29.98in /  1015.1hPa Calm     52% 0.00in /  0mm 0.0 W/m2
18:25 64.0 °F /  17.8 °C 46.6 °F /  8.1 °C 29.98in /  1015.1hPa East 2.0mph /  3.2km/h 2.0mph /  3.2km/h 53% 0.00in /  0mm 0.0 W/m2
18:32 63.7 °F /  17.6 °C 46.8 °F /  8.2 °C 29.98in /  1015.1hPa Calm   1.0mph /  1.6km/h 54% 0.00in /  0mm 0.0 W/m2
18:38 63.1 °F /  17.3 °C 46.8 °F /  8.2 °C 29.98in /  1015.1hPa Calm   1.0mph /  1.6km/h 55% 0.00in /  0mm 0.0 W/m2
18:44 62.8 °F /  17.1 °C 46.4 °F /  8 °C 29.98in /  1015.1hPa Calm     55% 0.00in /  0mm 0.0 W/m2
18:50 62.4 °F /  16.9 °C 46.6 °F /  8.1 °C 29.98in /  1015.1hPa Calm     56% 0.00in /  0mm 0.0 W/m2
18:56 62.1 °F /  16.7 °C 46.6 °F /  8.1 °C 29.99in /  1015.5hPa Calm     57% 0.00in /  0mm 0.0 W/m2
19:02 61.5 °F /  16.4 °C 46.6 °F /  8.1 °C 29.99in /  1015.5hPa Calm   1.0mph /  1.6km/h 58% 0.00in /  0mm 0.0 W/m2
19:08 61.3 °F /  16.3 °C 46.4 °F /  8 °C 29.99in /  1015.5hPa Calm   1.0mph /  1.6km/h 58% 0.00in /  0mm 0.0 W/m2
19:14 61.0 °F /  16.1 °C 46.6 °F /  8.1 °C 29.99in /  1015.5hPa Calm   1.0mph /  1.6km/h 59% 0.00in /  0mm 0.0 W/m2
19:20 60.8 °F /  16 °C 46.4 °F /  8 °C 29.99in /  1015.5hPa Calm     59% 0.00in /  0mm 0.0 W/m2
19:27 60.4 °F /  15.8 °C 46.0 °F /  7.8 °C 29.99in /  1015.5hPa Calm     59% 0.00in /  0mm 0.0 W/m2
19:33 60.4 °F /  15.8 °C 46.0 °F /  7.8 °C 30.00in /  1015.8hPa Calm     59% 0.00in /  0mm 0.0 W/m2
19:39 60.3 °F /  15.7 °C 45.9 °F /  7.7 °C 30.00in /  1015.8hPa Calm   2.0mph /  3.2km/h 59% 0.00in /  0mm 0.0 W/m2
19:45 60.3 °F /  15.7 °C 46.4 °F /  8 °C 30.00in /  1015.8hPa ENE 0.9mph /  1.4km/h 2.0mph /  3.2km/h 60% 0.00in /  0mm 0.0 W/m2
19:51 60.3 °F /  15.7 °C 46.4 °F /  8 °C 30.00in /  1015.8hPa Calm     60% 0.00in /  0mm 0.0 W/m2
19:57 60.1 °F /  15.6 °C 45.7 °F /  7.6 °C 30.01in /  1016.1hPa Calm     59% 0.00in /  0mm 0.0 W/m2
20:03 60.1 °F /  15.6 °C 46.2 °F /  7.9 °C 30.01in /  1016.1hPa Calm     60% 0.00in /  0mm 0.0 W/m2
20:10 59.9 °F /  15.5 °C 46.0 °F /  7.8 °C 30.01in /  1016.1hPa Calm     60% 0.00in /  0mm 0.0 W/m2
20:16 59.5 °F /  15.3 °C 46.0 °F /  7.8 °C 30.01in /  1016.1hPa Calm     61% 0.00in /  0mm 0.0 W/m2
20:22 59.4 °F /  15.2 °C 45.9 °F /  7.7 °C 30.01in /  1016.1hPa Calm   2.0mph /  3.2km/h 61% 0.00in /  0mm 0.0 W/m2
20:28 59.2 °F /  15.1 °C 45.7 °F /  7.6 °C 30.01in /  1016.1hPa Calm     61% 0.00in /  0mm 0.0 W/m2
20:34 58.8 °F /  14.9 °C 45.9 °F /  7.7 °C 30.02in /  1016.5hPa Calm     62% 0.00in /  0mm 0.0 W/m2
20:40 58.6 °F /  14.8 °C 46.0 °F /  7.8 °C 30.01in /  1016.1hPa Calm     63% 0.00in /  0mm 0.0 W/m2
20:46 58.5 °F /  14.7 °C 45.9 °F /  7.7 °C 30.01in /  1016.1hPa Calm     63% 0.00in /  0mm 0.0 W/m2
20:53 58.3 °F /  14.6 °C 46.2 °F /  7.9 °C 30.02in /  1016.5hPa Calm     64% 0.00in /  0mm 0.0 W/m2
20:59 57.9 °F /  14.4 °C 45.9 °F /  7.7 °C 30.02in /  1016.5hPa Calm     64% 0.00in /  0mm 0.0 W/m2
21:05 57.6 °F /  14.2 °C 45.9 °F /  7.7 °C 30.01in /  1016.1hPa Calm     65% 0.00in /  0mm 0.0 W/m2
21:11 57.4 °F /  14.1 °C 45.7 °F /  7.6 °C 30.01in /  1016.1hPa Calm   1.0mph /  1.6km/h 65% 0.00in /  0mm 0.0 W/m2
21:17 57.0 °F /  13.9 °C 45.9 °F /  7.7 °C 30.02in /  1016.5hPa Calm     66% 0.00in /  0mm 0.0 W/m2
21:23 56.8 °F /  13.8 °C 45.7 °F /  7.6 °C 30.01in /  1016.1hPa Calm     66% 0.00in /  0mm 0.0 W/m2
21:29 56.5 °F /  13.6 °C 45.3 °F /  7.4 °C 30.02in /  1016.5hPa Calm     66% 0.00in /  0mm 0.0 W/m2
21:35 56.3 °F /  13.5 °C 45.5 °F /  7.5 °C 30.02in /  1016.5hPa Calm     67% 0.00in /  0mm 0.0 W/m2
21:42 56.1 °F /  13.4 °C 45.3 °F /  7.4 °C 30.02in /  1016.5hPa Calm     67% 0.00in /  0mm 0.0 W/m2
21:48 55.9 °F /  13.3 °C 45.1 °F /  7.3 °C 30.01in /  1016.1hPa Calm     67% 0.00in /  0mm 0.0 W/m2
21:54 55.6 °F /  13.1 °C 45.1 °F /  7.3 °C 30.01in /  1016.1hPa Calm     68% 0.00in /  0mm 0.0 W/m2
22:00 55.6 °F /  13.1 °C 45.1 °F /  7.3 °C 30.01in /  1016.1hPa Calm     68% 0.00in /  0mm 0.0 W/m2
22:06 55.2 °F /  12.9 °C 45.1 °F /  7.3 °C 30.02in /  1016.5hPa Calm     69% 0.00in /  0mm 0.0 W/m2
22:12 55.0 °F /  12.8 °C 45.1 °F /  7.3 °C 30.01in /  1016.1hPa Calm     69% 0.00in /  0mm 0.0 W/m2
22:18 54.9 °F /  12.7 °C 45.0 °F /  7.2 °C 30.01in /  1016.1hPa Calm     69% 0.00in /  0mm 0.0 W/m2
22:24 54.9 °F /  12.7 °C 45.0 °F /  7.2 °C 30.01in /  1016.1hPa Calm     69% 0.00in /  0mm 0.0 W/m2
22:30 54.7 °F /  12.6 °C 44.8 °F /  7.1 °C 30.01in /  1016.1hPa Calm     69% 0.00in /  0mm 0.0 W/m2
22:37 54.3 °F /  12.4 °C 44.4 °F /  6.9 °C 30.01in /  1016.1hPa Calm     69% 0.00in /  0mm 0.0 W/m2
22:43 54.1 °F /  12.3 °C 44.6 °F /  7 °C 30.01in /  1016.1hPa Calm     70% 0.00in /  0mm 0.0 W/m2
22:49 54.0 °F /  12.2 °C 44.8 °F /  7.1 °C 30.02in /  1016.5hPa Calm     71% 0.00in /  0mm 0.0 W/m2
22:55 54.0 °F /  12.2 °C 44.8 °F /  7.1 °C 30.02in /  1016.5hPa Calm     71% 0.00in /  0mm 0.0 W/m2
23:01 53.8 °F /  12.1 °C 45.0 °F /  7.2 °C 30.02in /  1016.5hPa Calm     72% 0.00in /  0mm 0.0 W/m2
23:07 53.6 °F /  12 °C 44.8 °F /  7.1 °C 30.02in /  1016.5hPa Calm     72% 0.00in /  0mm 0.0 W/m2
23:13 53.4 °F /  11.9 °C 44.6 °F /  7 °C 30.01in /  1016.1hPa Calm     72% 0.00in /  0mm 0.0 W/m2
23:19 53.2 °F /  11.8 °C 44.4 °F /  6.9 °C 30.01in /  1016.1hPa Calm     72% 0.00in /  0mm 0.0 W/m2
23:25 53.2 °F /  11.8 °C 44.4 °F /  6.9 °C 30.02in /  1016.5hPa Calm   2.0mph /  3.2km/h 72% 0.00in /  0mm 0.0 W/m2
23:31 53.4 °F /  11.9 °C 44.6 °F /  7 °C 30.01in /  1016.1hPa ESE 2.0mph /  3.2km/h 2.0mph /  3.2km/h 72% 0.00in /  0mm 0.0 W/m2
23:37 53.8 °F /  12.1 °C 44.6 °F /  7 °C 30.02in /  1016.5hPa ESE 0.9mph /  1.4km/h 2.0mph /  3.2km/h 71% 0.00in /  0mm 0.0 W/m2
23:42 54.0 °F /  12.2 °C 44.8 °F /  7.1 °C 30.01in /  1016.1hPa Calm     71% 0.00in /  0mm 0.0 W/m2
23:49 54.0 °F /  12.2 °C 44.4 °F /  6.9 °C 30.01in /  1016.1hPa Calm     70% 0.00in /  0mm 0.0 W/m2
23:56 54.0 °F /  12.2 °C 44.8 °F /  7.1 °C 30.01in /  1016.1hPa Calm     71% 0.00in /  0mm 0.0 W/m2
Olympia, Windhoek, Namibia
Compliments of Weather Underground - 3 mb